createdAt,value
2022-12-03T00:00:18.506Z,15.23
2022-12-03T00:02:47.223Z,14.13
2022-12-03T00:05:15.837Z,13.27
2022-12-03T00:07:44.427Z,13.27
2022-12-03T00:10:14.538Z,14.00
2022-12-03T00:12:43.104Z,12.45
2022-12-03T00:15:12.778Z,13.93
2022-12-03T00:17:41.480Z,13.32
2022-12-03T00:20:12.881Z,13.73
2022-12-03T00:22:41.473Z,13.95
2022-12-03T00:25:10.779Z,15.57
2022-12-03T00:27:40.737Z,15.23
2022-12-03T00:30:10.863Z,14.43
2022-12-03T00:32:39.463Z,14.10
2022-12-03T00:35:08.648Z,13.50
2022-12-03T00:37:37.211Z,14.27
2022-12-03T00:40:06.926Z,13.30
2022-12-03T00:42:35.979Z,13.85
2022-12-03T00:47:35.682Z,12.02
2022-12-03T00:50:04.579Z,13.70
2022-12-03T00:52:33.251Z,12.52
2022-12-03T00:55:01.775Z,13.05
2022-12-03T00:57:30.352Z,13.63
2022-12-03T00:59:58.849Z,12.65
2022-12-03T01:02:28.818Z,11.95
2022-12-03T01:04:57.560Z,11.98
2022-12-03T01:07:26.906Z,13.00
2022-12-03T01:09:55.567Z,12.88
2022-12-03T01:12:27.656Z,13.65
2022-12-03T01:14:56.333Z,12.70
2022-12-03T01:17:25.473Z,12.82
2022-12-03T01:19:55.703Z,12.95
2022-12-03T01:22:24.252Z,12.23
2022-12-03T01:24:53.013Z,11.73
2022-12-03T01:27:21.774Z,12.27
2022-12-03T01:29:50.394Z,12.77
2022-12-03T01:32:18.295Z,13.55
2022-12-03T01:34:48.087Z,12.63
2022-12-03T01:37:19.105Z,13.35
2022-12-03T01:39:47.659Z,13.25
2022-12-03T01:42:19.437Z,12.73
2022-12-03T01:44:48.359Z,12.80
2022-12-03T01:47:19.036Z,13.47
2022-12-03T01:49:52.137Z,12.38
2022-12-03T01:52:25.781Z,13.20
2022-12-03T01:54:56.857Z,13.02
2022-12-03T01:57:28.343Z,12.88
2022-12-03T02:00:01.174Z,11.95
2022-12-03T02:02:34.254Z,13.23
2022-12-03T02:05:08.682Z,12.98
2022-12-03T02:07:38.768Z,13.82
2022-12-03T02:10:08.564Z,11.63
2022-12-03T02:15:10.017Z,13.23
2022-12-03T02:17:39.359Z,12.90
2022-12-03T02:20:10.223Z,13.55
2022-12-03T02:22:47.731Z,13.68
2022-12-03T02:25:24.492Z,12.27
2022-12-03T02:27:55.650Z,13.05
2022-12-03T02:30:27.011Z,12.25
2022-12-03T02:32:57.094Z,13.35
2022-12-03T02:35:27.288Z,13.63
2022-12-03T02:38:14.238Z,14.15
2022-12-03T02:41:03.985Z,13.60
2022-12-03T02:43:33.474Z,12.68
2022-12-03T02:46:03.767Z,13.73
2022-12-03T02:48:35.845Z,13.18
2022-12-03T02:51:09.276Z,13.93
2022-12-03T02:53:42.677Z,13.35
2022-12-03T02:56:15.756Z,12.25
2022-12-03T02:58:46.104Z,12.85
2022-12-03T03:01:15.552Z,11.48
2022-12-03T03:03:45.579Z,12.55
2022-12-03T03:06:14.559Z,12.88
2022-12-03T03:08:44.184Z,12.73
2022-12-03T03:11:14.525Z,12.85
2022-12-03T03:13:43.239Z,14.38
2022-12-03T03:16:12.534Z,11.77
2022-12-03T03:18:41.340Z,13.00
2022-12-03T03:21:11.172Z,14.88
2022-12-03T03:23:39.829Z,14.18
2022-12-03T03:26:10.167Z,11.90
2022-12-03T03:28:43.547Z,14.65
2022-12-03T03:31:15.117Z,13.93
2022-12-03T03:33:46.786Z,13.00
2022-12-03T03:36:16.248Z,13.80
2022-12-03T03:38:44.837Z,14.25
2022-12-03T03:41:15.205Z,14.50
2022-12-03T03:43:49.265Z,15.20
2022-12-03T03:46:18.746Z,14.85
2022-12-03T03:48:49.551Z,15.18
2022-12-03T03:51:20.049Z,15.23
2022-12-03T03:53:51.057Z,15.55
2022-12-03T03:56:21.859Z,15.73
2022-12-03T03:58:51.779Z,15.10
2022-12-03T04:01:20.632Z,14.63
2022-12-03T04:03:49.205Z,15.30
2022-12-03T04:06:17.858Z,16.83
2022-12-03T04:08:46.336Z,15.88
2022-12-03T04:11:40.766Z,17.33
2022-12-03T04:14:10.664Z,16.55
2022-12-03T04:16:39.323Z,14.82
2022-12-03T04:19:07.814Z,15.55
2022-12-03T04:21:53.680Z,15.00
2022-12-03T04:24:22.215Z,15.80
2022-12-03T04:27:08.147Z,15.75
2022-12-03T04:29:38.199Z,18.65
2022-12-03T04:32:24.456Z,15.48
2022-12-03T04:35:10.756Z,14.43
2022-12-03T04:37:39.367Z,13.68
2022-12-03T04:40:29.554Z,14.48
2022-12-03T04:42:58.126Z,16.23
2022-12-03T04:45:28.008Z,15.55
2022-12-03T04:47:56.533Z,14.70
2022-12-03T04:50:25.179Z,14.23
2022-12-03T04:52:53.679Z,14.73
2022-12-03T04:55:22.144Z,13.32
2022-12-03T04:57:50.661Z,12.43
2022-12-03T05:00:19.655Z,13.57
2022-12-03T05:02:49.788Z,13.10
2022-12-03T05:05:18.609Z,14.07
2022-12-03T05:07:47.192Z,13.52
2022-12-03T05:10:15.679Z,15.00
2022-12-03T05:12:44.204Z,15.05
2022-12-03T05:15:12.943Z,15.00
2022-12-03T05:17:41.413Z,16.67
2022-12-03T05:20:30.687Z,14.02
2022-12-03T05:22:59.195Z,13.02
2022-12-03T05:25:27.708Z,11.98
2022-12-03T05:27:56.317Z,13.23
2022-12-03T05:30:25.005Z,12.57
2022-12-03T05:32:53.645Z,13.43
2022-12-03T05:35:23.548Z,11.60
2022-12-03T05:37:53.636Z,12.65
2022-12-03T05:40:22.292Z,12.85
2022-12-03T05:42:56.896Z,12.77
2022-12-03T05:45:27.358Z,12.30
2022-12-03T05:47:56.835Z,12.48
2022-12-03T05:50:28.565Z,11.73
2022-12-03T05:52:57.087Z,12.80
2022-12-03T05:55:26.418Z,12.32
2022-12-03T05:57:55.127Z,12.13
2022-12-03T06:00:26.105Z,12.18
2022-12-03T06:02:55.290Z,12.75
2022-12-03T06:05:24.794Z,13.85
2022-12-03T06:07:54.815Z,12.82
2022-12-03T06:10:25.611Z,12.55
2022-12-03T06:12:54.595Z,12.15
2022-12-03T06:15:23.129Z,14.77
2022-12-03T06:17:51.707Z,15.15
2022-12-03T06:20:22.084Z,13.65
2022-12-03T06:22:50.662Z,11.38
2022-12-03T06:25:20.568Z,9.93
2022-12-03T06:27:49.093Z,11.55
2022-12-03T06:30:17.849Z,12.32
2022-12-03T06:32:46.601Z,11.70
2022-12-03T06:35:15.101Z,13.23
2022-12-03T06:37:43.644Z,12.38
2022-12-03T06:40:13.477Z,12.02
2022-12-03T06:45:12.714Z,11.07
2022-12-03T06:47:41.241Z,11.82
2022-12-03T06:50:10.725Z,12.68
2022-12-03T06:52:39.251Z,12.63
2022-12-03T06:55:08.775Z,13.75
2022-12-03T06:57:37.323Z,11.85
2022-12-03T07:00:10.064Z,13.57
2022-12-03T07:02:38.814Z,13.38
2022-12-03T07:05:07.664Z,11.82
2022-12-03T07:07:36.273Z,12.97
2022-12-03T07:10:05.340Z,13.02
2022-12-03T07:12:34.004Z,11.70
2022-12-03T07:15:02.586Z,11.85
2022-12-03T07:17:32.476Z,11.85
2022-12-03T07:20:01.011Z,10.20
2022-12-03T07:22:29.491Z,9.55
2022-12-03T07:24:58.062Z,10.23
2022-12-03T07:27:26.568Z,10.10
2022-12-03T07:29:55.073Z,10.32
2022-12-03T07:32:23.586Z,10.13
2022-12-03T07:34:53.667Z,10.23
2022-12-03T07:37:23.441Z,10.63
2022-12-03T07:42:21.247Z,9.93
2022-12-03T07:44:49.736Z,10.77
2022-12-03T07:47:18.595Z,11.60
2022-12-03T07:49:47.113Z,12.47
2022-12-03T07:52:17.039Z,11.73
2022-12-03T07:54:45.842Z,11.80
2022-12-03T07:57:14.415Z,11.90
2022-12-03T07:59:42.881Z,10.35
2022-12-03T08:02:11.508Z,27.63
2022-12-03T08:04:40.051Z,24.60
2022-12-03T08:07:08.548Z,12.95
2022-12-03T08:09:40.937Z,11.57
2022-12-03T08:12:18.255Z,11.25
2022-12-03T08:14:46.848Z,11.55
2022-12-03T08:17:18.013Z,11.77
2022-12-03T08:19:48.264Z,11.38
2022-12-03T08:22:17.639Z,11.48
2022-12-03T08:24:47.499Z,11.60
2022-12-03T08:29:46.371Z,12.43
2022-12-03T08:32:15.032Z,12.77
2022-12-03T08:34:45.516Z,12.80
2022-12-03T08:37:18.152Z,15.50
2022-12-03T08:39:49.745Z,12.98
2022-12-03T08:42:40.944Z,12.30
2022-12-03T08:45:43.337Z,13.82
2022-12-03T08:48:38.011Z,11.07
2022-12-03T08:51:14.222Z,10.15
2022-12-03T08:53:47.210Z,10.70
2022-12-03T08:56:23.447Z,11.93
2022-12-03T08:58:54.918Z,10.57
2022-12-03T09:01:31.928Z,11.48
2022-12-03T09:04:16.834Z,13.65
2022-12-03T09:06:45.490Z,11.80
2022-12-03T09:09:14.018Z,13.60
2022-12-03T09:11:44.438Z,13.02
2022-12-03T09:14:18.460Z,12.98
2022-12-03T09:16:48.015Z,12.02
2022-12-03T09:19:16.766Z,12.35
2022-12-03T09:21:45.933Z,11.27
2022-12-03T09:24:14.519Z,11.52
2022-12-03T09:26:44.633Z,11.65
2022-12-03T09:29:13.201Z,12.68
2022-12-03T09:31:42.314Z,13.15
2022-12-03T09:34:12.533Z,11.27
2022-12-03T09:36:41.101Z,12.82
2022-12-03T09:39:09.615Z,11.80
2022-12-03T09:41:38.559Z,16.33
2022-12-03T09:44:13.950Z,15.77
2022-12-03T09:46:49.265Z,18.75
2022-12-03T09:49:19.594Z,18.67
2022-12-03T09:51:48.684Z,18.55
2022-12-03T09:54:24.665Z,17.58
2022-12-03T09:56:53.878Z,17.88
2022-12-03T09:59:27.432Z,17.75
2022-12-03T10:01:56.230Z,17.73
2022-12-03T10:04:25.853Z,19.05
2022-12-03T10:06:54.559Z,18.67
2022-12-03T10:09:27.079Z,18.17
2022-12-03T10:11:56.606Z,18.48
2022-12-03T10:14:27.050Z,18.75
2022-12-03T10:16:55.715Z,17.45
2022-12-03T10:19:27.455Z,18.77
2022-12-03T10:21:56.888Z,18.05
2022-12-03T10:24:28.967Z,18.70
2022-12-03T10:26:59.509Z,17.83
2022-12-03T10:29:33.971Z,16.58
2022-12-03T10:32:05.972Z,18.30
2022-12-03T10:34:36.446Z,17.17
2022-12-03T10:37:14.443Z,18.02
2022-12-03T10:39:57.724Z,16.42
2022-12-03T10:42:27.790Z,16.52
2022-12-03T10:45:18.116Z,17.25
2022-12-03T10:48:05.133Z,17.30
2022-12-03T10:50:35.576Z,17.50
2022-12-03T10:53:04.226Z,17.42
2022-12-03T10:55:40.290Z,16.77
2022-12-03T10:58:17.125Z,16.25
2022-12-03T11:00:47.376Z,17.83
2022-12-03T11:03:21.481Z,17.30
2022-12-03T11:05:51.209Z,17.30
2022-12-03T11:08:22.022Z,17.75
2022-12-03T11:10:59.315Z,17.70
2022-12-03T11:13:52.432Z,17.05
2022-12-03T11:17:05.682Z,15.48
2022-12-03T11:19:50.147Z,15.80
2022-12-03T11:22:43.598Z,15.18
2022-12-03T11:25:50.433Z,15.00
2022-12-03T11:28:35.795Z,15.80
2022-12-03T11:31:09.871Z,15.10
2022-12-03T11:33:40.287Z,15.27
2022-12-03T11:36:31.610Z,15.30
2022-12-03T11:39:10.156Z,14.82
2022-12-03T11:41:39.497Z,14.32
2022-12-03T11:44:30.379Z,16.08
2022-12-03T11:47:02.147Z,16.30
2022-12-03T11:49:39.491Z,17.15
2022-12-03T11:52:30.438Z,15.75
2022-12-03T11:55:05.758Z,14.30
2022-12-03T11:57:37.680Z,16.33
2022-12-03T12:00:17.118Z,18.23
2022-12-03T12:02:45.945Z,14.43
2022-12-03T12:05:20.920Z,16.50
2022-12-03T12:07:52.323Z,16.88
2022-12-03T12:10:43.078Z,24.48
2022-12-03T12:13:33.962Z,18.15
2022-12-03T12:16:05.191Z,16.35
2022-12-03T12:18:38.786Z,17.15
2022-12-03T12:21:43.050Z,16.52
2022-12-03T12:24:33.148Z,17.30
2022-12-03T12:27:04.352Z,14.30
2022-12-03T12:29:33.199Z,15.25
2022-12-03T12:32:11.850Z,17.65
2022-12-03T12:34:43.186Z,18.60
2022-12-03T12:37:22.281Z,17.90
2022-12-03T12:39:57.311Z,18.45
2022-12-03T12:42:31.504Z,19.10
2022-12-03T12:45:03.034Z,18.60
2022-12-03T12:47:35.089Z,19.77
2022-12-03T12:50:05.679Z,17.50
2022-12-03T12:52:35.483Z,17.85
2022-12-03T13:00:06.059Z,16.20
2022-12-03T13:02:44.640Z,18.88
2022-12-03T13:05:15.265Z,19.88
2022-12-03T13:07:45.169Z,19.40
2022-12-03T13:10:39.663Z,18.90
2022-12-03T13:13:23.362Z,17.33
2022-12-03T13:16:04.546Z,19.27
2022-12-03T13:18:46.360Z,19.15
2022-12-03T13:21:26.507Z,19.48
2022-12-03T13:23:56.922Z,19.42
2022-12-03T13:29:20.269Z,19.30
2022-12-03T13:31:53.703Z,20.65
2022-12-03T13:34:23.826Z,19.88
2022-12-03T13:36:58.015Z,18.27
2022-12-03T13:39:33.042Z,18.50
2022-12-03T13:42:33.346Z,19.02
2022-12-03T13:45:04.068Z,17.13
2022-12-03T13:47:33.885Z,19.25
2022-12-03T13:55:05.351Z,14.60
2022-12-03T13:57:33.992Z,18.95
2022-12-03T14:00:04.075Z,20.30
2022-12-03T14:02:41.008Z,20.95
2022-12-03T14:05:10.046Z,20.33
2022-12-03T14:07:38.724Z,19.33
2022-12-03T14:10:09.331Z,19.00
2022-12-03T14:12:38.145Z,18.40
2022-12-03T14:15:10.878Z,18.77
2022-12-03T14:17:39.406Z,18.75
2022-12-03T14:20:09.262Z,18.58
2022-12-03T14:25:07.850Z,18.27
2022-12-03T14:27:36.441Z,17.92
2022-12-03T14:30:05.444Z,17.88
2022-12-03T14:32:35.344Z,21.02
2022-12-03T14:37:38.461Z,17.58
2022-12-03T14:40:09.193Z,18.10
2022-12-03T14:42:38.152Z,19.45
2022-12-03T14:45:07.426Z,18.03
2022-12-03T14:47:37.402Z,19.02
2022-12-03T14:50:07.125Z,19.02
2022-12-03T14:52:35.817Z,18.30
2022-12-03T14:55:04.377Z,18.80
2022-12-03T14:57:32.903Z,16.77
2022-12-03T15:00:01.442Z,16.70
2022-12-03T15:02:30.488Z,16.92
2022-12-03T15:05:00.599Z,16.38
2022-12-03T15:07:31.987Z,16.45
2022-12-03T15:10:00.605Z,17.02
2022-12-03T15:12:29.195Z,18.08
2022-12-03T15:15:00.127Z,14.95
2022-12-03T15:17:32.038Z,16.20
2022-12-03T15:20:05.892Z,17.60
2022-12-03T15:22:36.648Z,15.50
2022-12-03T15:25:07.784Z,15.50
2022-12-03T15:27:38.618Z,15.65
2022-12-03T15:30:10.095Z,18.38
2022-12-03T15:32:41.653Z,16.58
2022-12-03T15:35:17.793Z,18.45
2022-12-03T15:37:48.529Z,17.35
2022-12-03T15:40:19.345Z,15.52
2022-12-03T15:42:51.544Z,17.95
2022-12-03T15:45:23.672Z,17.90
2022-12-03T15:47:55.532Z,16.48
2022-12-03T15:50:28.673Z,18.08
2022-12-03T15:52:58.887Z,19.38
2022-12-03T15:55:29.045Z,18.77
2022-12-03T15:57:59.089Z,19.83
2022-12-03T16:00:30.726Z,21.13
2022-12-03T16:03:02.775Z,19.85
2022-12-03T16:05:36.290Z,18.98
2022-12-03T16:08:08.492Z,19.38
2022-12-03T16:10:40.703Z,19.65
2022-12-03T16:13:12.788Z,18.40
2022-12-03T16:15:45.302Z,19.88
2022-12-03T16:18:17.481Z,19.65
2022-12-03T16:20:50.965Z,21.48
2022-12-03T16:23:21.544Z,19.85
2022-12-03T16:25:52.443Z,21.95
2022-12-03T16:28:24.606Z,21.42
2022-12-03T16:30:56.918Z,21.65
2022-12-03T16:33:28.810Z,21.17
2022-12-03T16:36:00.235Z,20.35
2022-12-03T16:38:31.181Z,21.30
2022-12-03T16:41:01.412Z,21.10
2022-12-03T16:43:34.111Z,21.48
2022-12-03T16:46:20.696Z,21.27
2022-12-03T16:48:51.146Z,21.38
2022-12-03T16:51:22.437Z,21.88
2022-12-03T16:53:53.448Z,21.90
2022-12-03T16:56:23.630Z,28.20
2022-12-03T16:58:53.706Z,103.85
2022-12-03T17:01:24.385Z,38.08
2022-12-03T17:03:54.144Z,39.78
2022-12-03T17:06:25.453Z,33.90
2022-12-03T17:08:55.173Z,26.70
2022-12-03T17:11:24.836Z,27.00
2022-12-03T17:13:54.535Z,27.00
2022-12-03T17:18:53.811Z,23.50
2022-12-03T17:21:24.781Z,25.92
2022-12-03T17:23:54.393Z,27.63
2022-12-03T17:26:24.087Z,24.17
2022-12-03T17:28:53.897Z,24.95
2022-12-03T17:33:57.285Z,23.67
2022-12-03T17:36:28.230Z,23.48
2022-12-03T17:38:57.856Z,22.17
2022-12-03T17:41:27.357Z,23.02
2022-12-03T17:43:57.012Z,22.55
2022-12-03T17:46:25.610Z,21.00
2022-12-03T17:48:54.768Z,22.25
2022-12-03T17:51:25.048Z,20.67
2022-12-03T17:53:56.034Z,21.10
2022-12-03T17:56:25.640Z,21.33
2022-12-03T17:58:55.215Z,19.90
2022-12-03T18:01:24.841Z,21.02
2022-12-03T18:03:54.446Z,20.02
2022-12-03T18:06:26.450Z,18.75
2022-12-03T18:08:56.994Z,20.08
2022-12-03T18:11:25.723Z,19.73
2022-12-03T18:13:54.321Z,18.60
2022-12-03T18:16:23.102Z,20.48
2022-12-03T18:18:56.363Z,19.23
2022-12-03T18:21:27.348Z,20.60
2022-12-03T18:26:26.450Z,18.48
2022-12-03T18:28:55.096Z,19.95
2022-12-03T18:31:24.297Z,20.08
2022-12-03T18:33:53.712Z,20.33
2022-12-03T18:36:24.158Z,20.00
2022-12-03T18:38:55.525Z,19.77
2022-12-03T18:41:25.684Z,21.70
2022-12-03T18:43:55.779Z,23.55
2022-12-03T18:46:51.734Z,22.30
2022-12-03T18:49:12.918Z,18.63
2022-12-03T18:51:41.699Z,21.10
2022-12-03T18:54:14.052Z,22.13
2022-12-03T18:56:42.811Z,20.58
2022-12-03T18:59:13.943Z,21.67
2022-12-03T19:01:43.701Z,22.58
2022-12-03T19:04:13.686Z,22.83
2022-12-03T19:06:43.445Z,26.48
2022-12-03T19:11:42.958Z,23.33
2022-12-03T19:14:14.053Z,20.35
2022-12-03T19:16:44.660Z,22.58
2022-12-03T19:19:14.343Z,19.85
2022-12-03T19:21:44.020Z,22.48
2022-12-03T19:24:24.276Z,23.65
2022-12-03T19:26:55.587Z,22.90
2022-12-03T19:29:26.995Z,20.40
2022-12-03T19:31:56.675Z,22.63
2022-12-03T19:36:55.827Z,17.05
2022-12-03T19:39:25.380Z,20.90
2022-12-03T19:41:56.267Z,22.70
2022-12-03T19:44:27.271Z,22.05
2022-12-03T19:46:57.013Z,20.85
2022-12-03T19:49:27.285Z,22.35
2022-12-03T19:51:55.999Z,22.40
2022-12-03T19:54:25.549Z,22.15
2022-12-03T19:56:54.149Z,20.92
2022-12-03T19:59:22.663Z,21.95
2022-12-03T20:01:52.896Z,21.13
2022-12-03T20:04:21.632Z,23.75
2022-12-03T20:06:50.159Z,21.60
2022-12-03T20:09:18.795Z,21.75
2022-12-03T20:11:47.660Z,23.63
2022-12-03T20:14:17.727Z,22.77
2022-12-03T20:16:46.862Z,21.80
2022-12-03T20:19:18.576Z,21.00
2022-12-03T20:21:47.254Z,21.40
2022-12-03T20:24:18.035Z,20.35
2022-12-03T20:26:46.616Z,20.35
2022-12-03T20:29:15.364Z,21.05
2022-12-03T20:31:43.962Z,19.98
2022-12-03T20:34:12.728Z,20.52
2022-12-03T20:36:44.318Z,19.95
2022-12-03T20:39:13.163Z,19.65
2022-12-03T20:41:42.643Z,20.05
2022-12-03T20:44:11.851Z,21.02
2022-12-03T20:46:40.717Z,20.00
2022-12-03T20:49:09.708Z,21.40
2022-12-03T20:51:38.356Z,19.70
2022-12-03T20:54:08.347Z,21.35
2022-12-03T20:56:39.433Z,21.15
2022-12-03T20:59:14.023Z,19.98
2022-12-03T21:01:44.092Z,20.67
2022-12-03T21:04:16.230Z,19.65
2022-12-03T21:06:45.364Z,18.70
2022-12-03T21:09:15.684Z,19.65
2022-12-03T21:11:45.065Z,18.98
2022-12-03T21:14:13.958Z,20.10
2022-12-03T21:17:16.416Z,19.13
2022-12-03T21:19:36.272Z,19.25
2022-12-03T21:22:05.582Z,20.20
2022-12-03T21:24:36.456Z,20.33
2022-12-03T21:27:06.612Z,19.52
2022-12-03T21:29:35.733Z,19.67
2022-12-03T21:32:04.837Z,19.27
2022-12-03T21:34:36.467Z,19.33
2022-12-03T21:37:06.015Z,19.80
2022-12-03T21:39:36.350Z,20.23
2022-12-03T21:42:35.094Z,20.00
2022-12-03T21:44:54.984Z,19.65
2022-12-03T21:47:23.664Z,19.42
2022-12-03T21:49:52.501Z,20.00
2022-12-03T21:52:21.243Z,19.63
2022-12-03T21:54:53.539Z,18.27
2022-12-03T21:57:23.308Z,17.83
2022-12-03T22:02:22.716Z,17.17
2022-12-03T22:07:24.577Z,16.50
2022-12-03T22:09:55.340Z,17.77
2022-12-03T22:12:24.527Z,18.48
2022-12-03T22:14:53.742Z,17.15
2022-12-03T22:17:23.781Z,17.95
2022-12-03T22:19:53.172Z,18.48
2022-12-03T22:22:22.270Z,19.63
2022-12-03T22:24:51.062Z,18.83
2022-12-03T22:27:21.251Z,17.02
2022-12-03T22:29:50.141Z,16.27
2022-12-03T22:32:18.916Z,16.38
2022-12-03T22:34:51.058Z,17.48
2022-12-03T22:37:23.061Z,16.63
2022-12-03T22:39:55.297Z,16.88
2022-12-03T22:42:28.799Z,17.45
2022-12-03T22:45:00.761Z,17.30
2022-12-03T22:47:32.526Z,19.70
2022-12-03T22:50:04.340Z,16.42
2022-12-03T22:52:36.206Z,17.35
2022-12-03T22:55:06.252Z,16.60
2022-12-03T22:57:37.631Z,16.15
2022-12-03T23:00:10.503Z,15.93
2022-12-03T23:02:40.423Z,16.95
2022-12-03T23:05:10.187Z,15.27
2022-12-03T23:10:10.141Z,15.57
2022-12-03T23:12:40.101Z,14.30
2022-12-03T23:15:10.945Z,15.95
2022-12-03T23:17:39.541Z,14.18
2022-12-03T23:20:09.475Z,15.27
2022-12-03T23:22:38.061Z,15.15
2022-12-03T23:25:07.481Z,14.18
2022-12-03T23:27:36.050Z,16.02
2022-12-03T23:30:08.073Z,15.50
2022-12-03T23:32:36.667Z,15.10
2022-12-03T23:35:06.178Z,15.35
2022-12-03T23:37:34.899Z,15.68
2022-12-03T23:40:03.527Z,14.38
2022-12-03T23:42:32.095Z,15.82
2022-12-03T23:45:00.698Z,15.10
2022-12-03T23:47:30.958Z,15.00
2022-12-03T23:49:59.568Z,13.82
2022-12-03T23:52:28.074Z,13.73
2022-12-03T23:54:56.602Z,15.27
2022-12-03T23:57:25.131Z,14.48
2022-12-03T23:59:53.879Z,14.15
